Bezig met laden...

Meteo / TAF / Notam

België
  • EBAW - ANTWERPEN / DEURNE
    EBAW 290450Z AUTO 08008KT 2600 BR OVC003/// 04/03 Q1024
    TAF EBAW 290206Z 2903/2912 06006KT 3000 BR BKN003 TEMPO 2903/2911 1500 PROB40 2903/2910 0250 FG BKN001
  • EBBE - BEAUVECHAIN
    EBBE 290455Z AUTO 05009KT 1900 BR BKN002/// 03/02 Q1023 AMB
  • EBBL - KLEINE-BROGEL
    EBBL 290455Z AUTO 07009KT 4800 BR OVC004/// 03/02 Q1024 YLO
  • EBBR - BRUSSELS / BRUSSELS-NATIONAL
    EBBR 290450Z 08006KT 2000 BR BKN003 03/02 Q1023 NOSIG
    TAF EBBR 282317Z 2900/3006 06006KT 2500 BR BKN003 TEMPO 2900/2909 1500 PROB40 2902/2908 0250 FG BKN001 BECMG 2911/2913 6000 NSW BKN007 BECMG 2912/2914 NSC PROB40 3001/3006 4500 BR PROB30 3003/3006 1500 MIFG BKN003
  • EBCI - CHARLEROI / BRUSSELS SOUTH
    EBCI 290450Z 06011KT 0350 R24/0600N FG BKN001 02/02 Q1022 NOSIG
    TAF EBCI 282317Z 2900/3006 06006KT 3000 BR BKN003 TEMPO 2900/2910 1200 PROB40 2900/2908 0250 FG BKN001 BECMG 2911/2913 6000 NSW BKN007 BECMG 2913/2915 NSC PROB40 2923/3006 2500 BR BKN003 PROB30 3001/3006 0500 FG BKN001
  • EBCV - CHIÈVRES
    EBCV 290455Z AUTO 05010KT //// OVC003/// 03/03 Q1023 YLO
    TAF EBCV 281541Z 2819/2907 07004KT 9999 SKC BY EBWM BECMG 2900/2902 3000 BR BKN003 PROB40 TEMPO 2902/2907 0500 FG BKN001
  • EBDT - DIEST / SCHAFFEN
    EBDT 290455Z AUTO 07007KT 2400 BR BKN003/// 03/02 Q1024 YLO
  • EBFN - KOKSIJDE
    EBFN 290455Z AUTO 09008KT 0200 -RA OVC002/// 03/03 Q1023 RED
    TAF EBFN 281541Z 2819/2907 07006KT 7000 FEW300 BECMG 2822/2924 4000 BR SCT060 BECMG 2900/2902 2000 BR BKN003 TEMPO 2902/2907 VRB03KT 0800 FG BKN002 TEMPO 2902/2907 VRB03KT 0200 FG BKN001
  • EBFS - FLORENNES
    EBFS 290455Z AUTO 04007KT 0100 FG OVC002/// 01/01 Q1021 RED
  • EBLB - ELSENBORN
    EBLB 290455Z AUTO 08004KT 0800 FG OVC002/// M02/M02 Q1021 AMB
  • EBLG - LIÈGE / LIÈGE
    EBLG 290450Z 05009KT 0200 R22L/0650N R22R/0550N R04R/0500N FG BKN001 01/00 Q1023 NOSIG
    TAF EBLG 282317Z 2900/3006 06006KT 2000 BR BKN003 TEMPO 2900/2908 1500 PROB40 2900/2906 0250 FG BKN001 BECMG 2909/2911 6000 NSW FEW015 PROB30 3002/3006 3500 BR BKN005
  • EBOS - OOSTENDE-BRUGGE / OOSTENDE
    EBOS 290450Z 09007KT 0400 R08/0600N R26/0800N FG BKN001 BKN002 03/02 Q1024 NOSIG
    TAF EBOS 282317Z 2900/3006 08008KT 3000 BR BKN003 TEMPO 2900/2909 1500 PROB40 2900/2908 0250 FG BKN001 BECMG 2909/2911 6000 NSW BKN007 BECMG 2918/2920 NSC PROB30 2922/3006 1500 BR MIFG
Nederland
  • EHAK - A12-CPP HELIPAD OIL 2011
    EHAK 290455Z AUTO VRB11KT 9999 BKN014/// OVC016/// 08/04 Q1027
  • EHAM - AMSTERDAM AIRPORT SCHIPHOL
    EHAM 290455Z 11006KT 070V140 2600 BR SCT002 BKN004 04/03 Q1025 BECMG 5000 BKN005
    TAF AMD EHAM 290225Z 2902/3006 07007KT 2000 BR OVC002 BECMG 2902/2904 4000 OVC004 BECMG 2904/2906 6000 NSW BKN006 BECMG 2906/2908 8000 BKN012 BECMG 2908/2911 CAVOK PROB30 2920/3003 VRB03KT 5000 BR BECMG 3003/3006 18008KT
  • EHBK - MAASTRICHT AACHEN AIRPORT
    EHBK 290455Z AUTO 07010KT 030V100 2500 BR OVC001 02/01 Q1023 BECMG 3000 BKN002
    TAF EHBK 282317Z 2900/3006 07008KT 2000 BR BKN004 BECMG 2901/2904 4000 BKN007 BECMG 2909/2912 CAVOK PROB30 2922/3006 4000 BR
  • EHDL - DEELEN AIR BASE
    EHDL 290455Z AUTO 06006KT 360V120 9000 BR BKN007 OVC008 02/01 Q1025 GRN
  • EHDV - D15-FA-1 SEA
    EHDV 290455Z AUTO 13013KT 9999 OVC010/// 08/05 Q1026
  • EHEH - EINDHOVEN AIRPORT
    EHEH 290500Z AUTO 06006KT 3600 BR OVC006 03/02 Q1025 YLO
    TAF EHEH 282315Z 2900/3006 07010KT 3000 BR OVC004 PROB40 2900/2907 5000 NSW SCT005 BKN008 BECMG 2907/2909 9999 FEW022 BECMG 2919/2921 VRB02KT 1200 BR BECMG 3004/3006 21004KT
  • EHFD - F-3 PLATFORM
    EHFD 290455Z AUTO /////KT 9999 // BKN013/// 07/03 Q1026 RE//
  • EHFS - VLISSINGEN
    EHFS 290455Z AUTO 07011KT 050V110 0400 -UP VV000 04/04 Q1024
  • EHGG - GRONINGEN AIRPORT EELDE
    EHGG 290455Z AUTO 08003KT 9999 NCD M00/M02 Q1027 NOSIG
    TAF EHGG 282317Z 2900/3006 10008KT 9999 BKN012 BECMG 2901/2904 CAVOK PROB30 2901/2909 4000 BR BECMG 2917/2920 4000 BR MIFG BECMG 2920/2923 2000 PROB40 2920/3006 0700 FG BKN001
  • EHGR - GILZE-RIJEN AIR BASE
    EHGR 290455Z AUTO 05008KT 010V090 2600 BR OVC003 04/03 Q1024 YLO
  • EHJA - J6-A SEA, NETHERLANDS
    EHJA 290455Z AUTO VRB11KT 8000 BKN004/// OVC005/// 07/06 Q1025
  • EHJR - K13-A PLATFORM
    EHJR 290455Z AUTO 00000KT //// // ///////// 07/06 Q1026 RE// W///H8
  • EHKD - DEN HELDER AIRPORT
    EHKD 290455Z AUTO 09009KT 060V120 9000 BR BKN008 OVC009 03/01 Q1026 GRN
    TAF EHKD 290148Z 2902/2914 08005KT 3500 BR OVC004 BECMG 2903/2905 6000 NSW OVC010 BECMG 2907/2909 SCT022
  • EHKV - K14-FA-1C PLATFORM
    EHKV 290455Z AUTO 12012KT 9000 SCT006 BKN007 OVC008 07/05 Q1025
  • EHLE - LELYSTAD AIRPORT
    EHLE 290455Z AUTO 07007KT 040V100 8000 OVC009 03/01 Q1025
    TAF EHLE 282316Z 2900/3006 08009KT 3000 BR OVC003 BECMG 2900/2902 6000 NSW OVC005 BECMG 2902/2905 8000 BKN010 BECMG 2905/2908 CAVOK BECMG 2918/2921 VRB03KT 7000 PROB40 2921/3006 4000 BR PROB30 TEMPO 2922/3003 0800 FG OVC001 BECMG 3003/3006 18007KT
  • EHLW - LEEUWARDEN AIR BASE
    EHLW 290455Z AUTO 08007KT 020V130 9999 OVC008 01/M00 Q1027 GRN
    TAF EHLW 290147Z 2902/2914 08008KT 9999 OVC010 BECMG 2906/2909 SCT022
  • EHMA - AWG-1 PLATFORM
    EHMA 290455Z AUTO 10010KT 020V170 9999 BKN006 OVC007 03/00 Q1027
  • EHMG - L9-FF-1 PLATFORM
    EHMG 290455Z AUTO 11011KT 9999 SCT008 BKN009 OVC010 05/02 Q1027
  • EHPG - P11-B SEA, NETHERLANDS
    EHPG 290455Z AUTO 07011KT 040V110 3100 BR BKN001 OVC002 06/06 Q1025
  • EHQE - HOORN-A SEA, NETHERLANDS
    EHQE 290455Z AUTO 05014KT 030V090 8000 FEW003 SCT004 BKN005 05/03 Q1025
  • EHRD - ROTTERDAM THE HAGUE AIRPORT
    EHRD 290455Z AUTO 07007KT 1300 R06/1700N BR OVC001 04/04 Q1025 BECMG 3000 BKN004
    TAF AMD EHRD 290246Z 2902/3006 07007KT 1400 BR OVC001 BECMG 2903/2905 2500 BKN003 BECMG 2905/2907 6000 NSW BKN006 BECMG 2907/2909 8000 BKN012 BECMG 2909/2911 CAVOK BECMG 2918/2921 VRB03KT 7000 PROB30 2921/3003 4000 BR BECMG 3003/3006 18007KT
  • EHSA - EURO PLATFORM
    EHSA 290455Z AUTO 08011KT 2100 BR ///////// 06/06 Q1024 W10/H6
  • EHSC - LICHTEILAND GOEREE
    EHSC 290455Z AUTO 10012KT 1000 BR ///////// 04/04 Q1024 W11/H5
  • EHVK - VOLKEL AIR BASE
    EHVK 290455Z AUTO 07010KT 050V110 7000 BR OVC009 02/M00 Q1025 GRN
    TAF EHVK 290144Z 2902/2914 07010KT 3500 BR OVC005 PROB40 2902/2907 5000 NSW BECMG 2907/2909 9999 NSC
  • EHVL - VLIELAND HELIPORT
    EHVL 290455Z AUTO 08010KT 9999 OVC009 03/01 Q1026 GRN
  • EHWO - WOENSDRECHT AIR BASE
    EHWO 290455Z AUTO 07009KT 030V100 1500 BR OVC001 04/04 Q1024 RED
Luxemburg
  • ELLX - LUXEMBOURG FINDEL AIRPORT
    ELLX 290450Z 06010KT 040V100 3000 BR BKN003 01/00 Q1021 NOSIG
    TAF ELLX 282300Z 2900/3006 04008KT CAVOK BECMG 2900/2903 3000 BR SCT005 PROB40 TEMPO 2903/2906 0500 FZFG BKN001 BECMG 2907/2910 CAVOK BECMG 3000/3003 3500 NSC

Buienradar



Weerbericht - Voorspelling